WetterOnline ( https://www.wetteronline.de )

Wetter aktuell Schwäbisch Hall

Aktuelles Wetter: Öhringen (277m)

6-stündlich | Neueste Meldungen
Ortszeit Temperatur Wetter
Mi, 18.05. 20:00 25.6° C leicht bewölkt
Mi, 18.05. 14:00 26.7° C wolkig
Mi, 18.05. 8:00 16.6° C bedeckt
Mi, 18.05. 2:00 15.7° C bedeckt
Di, 17.05. 20:00 23.1° C wolkig
Di, 17.05. 14:00 24.0° C wolkig
Di, 17.05. 8:00 16.5° C wolkenlos
Di, 17.05. 2:00 15.3° C fast wolkenlos
Ortszeit Temperatur Wetter
Mi, 18.05. 21:30 22.8° C wolkenlos
Mi, 18.05. 21:20 22.8° C wolkenlos
Mi, 18.05. 21:10 23.1° C fast wolkenlos
Mi, 18.05. 21:00 23.8° C leicht bewölkt
Mi, 18.05. 20:50 23.8° C leicht bewölkt
Mi, 18.05. 20:40 24.1° C bewölkt
Mi, 18.05. 20:30 24.8° C leicht bewölkt
Mi, 18.05. 20:00 25.6° C leicht bewölkt
Mi, 18.05. 19:30 26.3° C wolkig
Mi, 18.05. 19:00 26.6° C leicht bewölkt
Mi, 18.05. 18:30 27.0° C wolkig
Ortszeit Relative Feuchte Sichtweite
Mi, 18.05. 20:00 36% 55 km
Mi, 18.05. 14:00 34% >70 km
Mi, 18.05. 8:00 75% 30 km
Mi, 18.05. 2:00 74% 40 km
Di, 17.05. 20:00 47% 55 km
Di, 17.05. 14:00 40% >70 km
Di, 17.05. 8:00 75% 35 km
Di, 17.05. 2:00 82% 45 km
Ortszeit Relative Feuchte Sichtweite
Mi, 18.05. 21:30 46% 45 km
Mi, 18.05. 21:20 46% -
Mi, 18.05. 21:10 45% -
Mi, 18.05. 21:00 43% 65 km
Mi, 18.05. 20:50 43% -
Mi, 18.05. 20:40 42% -
Mi, 18.05. 20:30 40% >70 km
Mi, 18.05. 20:00 36% 55 km
Mi, 18.05. 19:30 34% >70 km
Mi, 18.05. 19:00 33% 60 km
Mi, 18.05. 18:30 34% 45 km
Ortszeit Niederschlagsmenge Niederschlagsart
Mi, 18.05. 20:00 0.0 l/m2 in 12 Std. -
Mi, 18.05. 14:00 0.0 l/m2 in 6 Std. -
Mi, 18.05. 8:00 0.0 l/m2 in 12 Std. -
Mi, 18.05. 2:00 0.0 l/m2 in 6 Std. -
Di, 17.05. 20:00 0.0 l/m2 in 12 Std. -
Di, 17.05. 14:00 0.0 l/m2 in 6 Std. -
Di, 17.05. 8:00 0.0 l/m2 in 12 Std. -
Di, 17.05. 2:00 0.0 l/m2 in 6 Std. -
Ortszeit Niederschlagsmenge Niederschlagsart
Mi, 18.05. 21:30 0.0 l/m2 in 1 Std. -
Mi, 18.05. 21:20 keine Meldung -
Mi, 18.05. 21:10 keine Meldung -
Mi, 18.05. 21:00 0.0 l/m2 in 1 Std. -
Mi, 18.05. 20:50 keine Meldung -
Mi, 18.05. 20:40 keine Meldung -
Mi, 18.05. 20:30 0.0 l/m2 in 1 Std. -
Mi, 18.05. 20:00 0.0 l/m2 in 1 Std. -
Mi, 18.05. 19:30 0.0 l/m2 in 1 Std. -
Mi, 18.05. 19:00 0.0 l/m2 in 1 Std. -
Mi, 18.05. 18:30 0.0 l/m2 in 1 Std. -
Ortszeit Stärke Spitze Richtung
km/h Bft. km/h Grad Sektor
Mi, 18.05. 20:00 14 3 29 110° O
Mi, 18.05. 14:00 15 3 24 100° O
Mi, 18.05. 8:00 4 1 14 360° N
Mi, 18.05. 2:00 4 1 14 70° O
Di, 17.05. 20:00 7 2 18 50° NO
Di, 17.05. 14:00 7 2 18 130° SO
Di, 17.05. 8:00 2 1 7 130° SO
Di, 17.05. 2:00 2 1 31 240° SW
Ortszeit Stärke Spitze Richtung
km/h Bft. km/h Grad Sektor
Mi, 18.05. 21:30 13 3 20 110° O
Mi, 18.05. 21:20 13 3 - 110° O
Mi, 18.05. 21:10 13 3 - 110° O
Mi, 18.05. 21:00 11 2 24 110° O
Mi, 18.05. 20:50 11 2 - 110° O
Mi, 18.05. 20:40 11 2 - 110° O
Mi, 18.05. 20:30 13 3 24 110° O
Mi, 18.05. 20:00 14 3 25 110° O
Mi, 18.05. 19:30 13 3 24 100° O
Mi, 18.05. 19:00 17 3 30 100° O
Mi, 18.05. 18:30 17 3 30 110° O
Ortszeit Untergrenze Bedeckung Gattung
total tief tief mittel hoch
Mi, 18.05. 20:00 12000 m 5/8 0/8 - - -
Mi, 18.05. 14:00 1800 m 7/8 2/8 - - -
Mi, 18.05. 8:00 3300 m 8/8 8/8 - - -
Mi, 18.05. 2:00 4800 m 8/8 8/8 - - -
Di, 17.05. 20:00 3300 m 8/8 2/8 - - -
Di, 17.05. 14:00 5100 m 8/8 2/8 - - -
Di, 17.05. 8:00 - 0/8 0/8 - - -
Di, 17.05. 2:00 1020 m 1/8 1/8 - - -
Ortszeit Bedeckungsgrad in Achtel und Wolkenuntergrenze
Mi, 18.05. 21:30 keine Wolken
Mi, 18.05. 21:20 keine Wolken
Mi, 18.05. 21:10 1
Mi, 18.05. 21:00 5(10500m)
Mi, 18.05. 20:50 5(10500m)
Mi, 18.05. 20:40 7
Mi, 18.05. 20:30 3(10500m)
Mi, 18.05. 20:00 5(12000m)
Mi, 18.05. 19:30 8(10500m)
Mi, 18.05. 19:00 8(10500m)
Mi, 18.05. 18:30 6(10500m) 7(12000m)
Ortszeit Luftdruck NN (hPa) Tendenz (hPa in 3 Std.)
Mi, 18.05. 20:00 1020 - 0,4
Mi, 18.05. 14:00 1021 - 1,1
Mi, 18.05. 8:00 1023 + 1,5
Mi, 18.05. 2:00 1022 + 0,5
Di, 17.05. 20:00 1019 - 0,3
Di, 17.05. 14:00 1021 - 0,9
Di, 17.05. 8:00 1022 + 0,9
Di, 17.05. 2:00 1021 + 0,4
Ortszeit Luftdruck NN (hPa) Tendenz (hPa in 3 Std.)
Mi, 18.05. 21:30 1021 0,0
Mi, 18.05. 21:20 1021 keine Meldung
Mi, 18.05. 21:10 1021 keine Meldung
Mi, 18.05. 21:00 1021 0,0
Mi, 18.05. 20:50 1021 keine Meldung
Mi, 18.05. 20:40 1021 keine Meldung
Mi, 18.05. 20:30 1021 - 0,1
Mi, 18.05. 20:00 1020 - 0,4
Mi, 18.05. 19:30 1020 - 0,3
Mi, 18.05. 19:00 1020 - 0,6
Mi, 18.05. 18:30 1020 - 0,7
Ortszeit Schneehöhe (cm)
Mi, 18.05. 20:00 0
Mi, 18.05. 14:00 0
Mi, 18.05. 8:00 0
Mi, 18.05. 2:00 0
Di, 17.05. 20:00 0
Di, 17.05. 14:00 0
Di, 17.05. 8:00 0
Di, 17.05. 2:00 0
Ortszeit Schneehöhe (cm)
Mi, 18.05. 21:30 0
Mi, 18.05. 21:20 0
Mi, 18.05. 21:10 0
Mi, 18.05. 21:00 0
Mi, 18.05. 20:50 0
Mi, 18.05. 20:40 0
Mi, 18.05. 20:30 0
Mi, 18.05. 20:00 0
Mi, 18.05. 19:30 0
Mi, 18.05. 19:00 0
Mi, 18.05. 18:30 0
Link zu dieser Seite / Seite empfehlen

Das Wetter in ...